Time;durP1;ratioP1;P1;durP2;ratioP2;P2;SDS_P1;SDS_P2;PMS_P1;PMS_P2;Temp;Humidity;BMP_temperature;BMP_pressure;BME280_temperature;BME280_humidity;BME280_pressure;Samples;Min_cycle;Max_cycle;Signal;HPM_P1;HPM_P2
2022/11/10 00:00:10;;;;;;;13.80;4.73;;;;;;;;;;5040484;28;20689;-74
2022/11/10 00:02:35;;;;;;;15.50;4.73;;;;;;;;;;5045287;28;20178;-74
2022/11/10 00:05:00;;;;;;;12.43;3.97;;;;;;;;;;5042551;28;20178;-74
2022/11/10 00:07:26;;;;;;;14.40;4.30;;;;;;;;;;5043978;28;20194;-74
2022/11/10 00:09:51;;;;;;;13.30;4.17;;;;;;;;;;5040014;28;20257;-74
2022/11/10 00:12:17;;;;;;;18.73;3.87;;;;;;;;;;5054874;28;20324;-74
2022/11/10 00:17:26;;;;;;;15.27;4.10;;;;;;;;;;5045809;28;20212;-74
2022/11/10 00:19:51;;;;;;;13.43;4.23;;;;;;;;;;5045742;28;20241;-75
2022/11/10 00:22:17;;;;;;;12.33;3.63;;;;;;;;;;5048403;28;20170;-74
2022/11/10 00:24:43;;;;;;;16.57;4.50;;;;;;;;;;5051562;28;20174;-74
2022/11/10 00:27:09;;;;;;;18.97;5.30;;;;;;;;;;5051425;28;20273;-74
2022/11/10 00:29:34;;;;;;;19.87;5.00;;;;;;;;;;5049032;28;20626;-74
2022/11/10 00:31:59;;;;;;;9.40;4.87;;;;;;;;;;5043906;28;20178;-74
2022/11/10 00:34:24;;;;;;;13.70;3.90;;;;;;;;;;5059634;28;20567;-74
2022/11/10 00:36:49;;;;;;;13.53;5.30;;;;;;;;;;5043537;28;20217;-74
2022/11/10 00:39:14;;;;;;;10.93;5.40;;;;;;;;;;5045004;28;20174;-74
2022/11/10 00:41:40;;;;;;;14.40;4.73;;;;;;;;;;5050308;28;20627;-74
2022/11/10 00:44:05;;;;;;;17.33;4.40;;;;;;;;;;5050473;28;20169;-74
2022/11/10 00:46:30;;;;;;;14.63;3.93;;;;;;;;;;5050339;28;20189;-74
2022/11/10 00:48:55;;;;;;;12.70;4.33;;;;;;;;;;5040223;28;20173;-74
2022/11/10 00:51:22;;;;;;;13.67;3.90;;;;;;;;;;5045731;28;20571;-74
2022/11/10 00:53:47;;;;;;;13.63;4.60;;;;;;;;;;5049937;28;20277;-74
2022/11/10 00:56:13;;;;;;;16.67;4.20;;;;;;;;;;5047653;28;20197;-74
2022/11/10 00:58:38;;;;;;;16.70;4.90;;;;;;;;;;5049723;28;20216;-74
2022/11/10 01:01:04;;;;;;;18.57;4.77;;;;;;;;;;5050137;28;20174;-74
2022/11/10 01:03:29;;;;;;;15.87;4.63;;;;;;;;;;5046227;28;20211;-74
2022/11/10 01:05:54;;;;;;;15.03;4.70;;;;;;;;;;5056364;28;20877;-74
2022/11/10 01:08:20;;;;;;;12.07;3.70;;;;;;;;;;5048399;28;20178;-74
2022/11/10 01:10:45;;;;;;;10.53;4.80;;;;;;;;;;5041225;28;20713;-74
2022/11/10 01:13:10;;;;;;;11.20;4.20;;;;;;;;;;5048606;28;20655;-75
2022/11/10 01:15:39;;;;;;;20.17;5.57;;;;;;;;;;5039953;28;20293;-75
2022/11/10 01:18:04;;;;;;;12.93;5.37;;;;;;;;;;5038813;28;20277;-75
2022/11/10 01:20:31;;;;;;;12.13;4.53;;;;;;;;;;5040754;28;20695;-74
2022/11/10 01:22:56;;;;;;;18.00;5.57;;;;;;;;;;5047046;28;20244;-75
2022/11/10 01:25:21;;;;;;;13.53;4.27;;;;;;;;;;5048760;28;20209;-75
2022/11/10 01:27:47;;;;;;;17.03;4.50;;;;;;;;;;5039816;28;20186;-74
2022/11/10 01:30:12;;;;;;;14.03;4.90;;;;;;;;;;5044742;28;20616;-75
2022/11/10 01:32:37;;;;;;;10.67;4.63;;;;;;;;;;5043006;28;20178;-74
2022/11/10 01:35:03;;;;;;;18.20;4.30;;;;;;;;;;5042048;28;20192;-75
2022/11/10 01:37:28;;;;;;;13.17;5.07;;;;;;;;;;5048566;28;20221;-75
2022/11/10 01:39:53;;;;;;;17.27;5.70;;;;;;;;;;5048088;28;20235;-75
2022/11/10 01:42:26;;;;;;;16.27;5.07;;;;;;;;;;5039902;28;20224;-74
2022/11/10 01:45:09;;;;;;;17.33;4.53;;;;;;;;;;5038649;28;20212;-75
2022/11/10 01:47:34;;;;;;;18.37;4.30;;;;;;;;;;5048360;28;20201;-75
2022/11/10 01:50:00;;;;;;;21.03;4.80;;;;;;;;;;5041269;28;20227;-75
2022/11/10 01:52:25;;;;;;;19.10;5.10;;;;;;;;;;5032958;28;20720;-74
2022/11/10 01:54:50;;;;;;;19.43;4.80;;;;;;;;;;5039332;28;20711;-74
2022/11/10 01:57:16;;;;;;;14.83;4.40;;;;;;;;;;5035772;28;20190;-74
2022/11/10 01:59:43;;;;;;;14.23;4.80;;;;;;;;;;5049290;28;20618;-74
2022/11/10 02:02:14;;;;;;;11.00;4.07;;;;;;;;;;5042343;28;20566;-74
2022/11/10 02:04:40;;;;;;;21.90;5.57;;;;;;;;;;5052470;28;20188;-74
2022/11/10 02:07:05;;;;;;;21.53;5.20;;;;;;;;;;5054526;28;20272;-74
2022/11/10 02:09:30;;;;;;;17.53;4.40;;;;;;;;;;5050917;28;20181;-74
2022/11/10 02:11:56;;;;;;;17.73;4.90;;;;;;;;;;5042040;28;20206;-74
2022/11/10 02:14:21;;;;;;;19.07;5.03;;;;;;;;;;5055251;28;20162;-74
2022/11/10 02:16:46;;;;;;;17.90;5.17;;;;;;;;;;5052530;28;20204;-74
2022/11/10 02:19:17;;;;;;;24.00;6.40;;;;;;;;;;5046849;28;20174;-74
2022/11/10 02:21:42;;;;;;;10.70;4.63;;;;;;;;;;5045322;28;20261;-74
2022/11/10 02:24:07;;;;;;;21.33;5.97;;;;;;;;;;5049954;28;20261;-74
2022/11/10 02:26:33;;;;;;;18.07;4.20;;;;;;;;;;5041965;28;20202;-74
2022/11/10 02:28:58;;;;;;;15.97;5.47;;;;;;;;;;5046326;28;20170;-74
2022/11/10 02:31:23;;;;;;;17.50;4.47;;;;;;;;;;5048243;28;20567;-74
2022/11/10 02:33:49;;;;;;;14.93;5.03;;;;;;;;;;5046165;28;20185;-74
2022/11/10 02:36:14;;;;;;;19.40;6.47;;;;;;;;;;5042138;28;20244;-74
2022/11/10 02:38:39;;;;;;;14.40;4.93;;;;;;;;;;5055012;28;20251;-74
2022/11/10 02:41:04;;;;;;;20.73;4.53;;;;;;;;;;5050082;28;20169;-74
2022/11/10 02:43:30;;;;;;;16.90;5.50;;;;;;;;;;5051671;28;20618;-74
2022/11/10 02:45:55;;;;;;;16.30;4.53;;;;;;;;;;5041989;28;20194;-74
2022/11/10 02:48:20;;;;;;;16.37;5.03;;;;;;;;;;5043635;28;20176;-74
2022/11/10 02:50:45;;;;;;;16.47;5.00;;;;;;;;;;5046603;28;20659;-74
2022/11/10 02:53:11;;;;;;;14.53;5.50;;;;;;;;;;5044569;28;20216;-74
2022/11/10 02:55:36;;;;;;;17.40;4.97;;;;;;;;;;5053317;28;20280;-74
2022/11/10 02:58:02;;;;;;;24.03;5.37;;;;;;;;;;5045048;28;20693;-74
2022/11/10 03:00:27;;;;;;;17.33;5.03;;;;;;;;;;5051774;28;20181;-74
2022/11/10 03:02:56;;;;;;;14.60;4.67;;;;;;;;;;5048399;28;20178;-74
2022/11/10 03:05:22;;;;;;;18.00;5.50;;;;;;;;;;5044051;28;20705;-74
2022/11/10 03:07:57;;;;;;;22.20;4.83;;;;;;;;;;5042798;28;20174;-74
2022/11/10 03:10:23;;;;;;;21.03;5.47;;;;;;;;;;5064663;28;20615;-74
2022/11/10 03:12:48;;;;;;;17.23;4.53;;;;;;;;;;5044222;28;21808;-74
2022/11/10 03:15:13;;;;;;;16.13;5.20;;;;;;;;;;5038455;28;20178;-74
2022/11/10 03:17:39;;;;;;;15.37;4.80;;;;;;;;;;5059762;28;20277;-74
2022/11/10 03:20:04;;;;;;;19.30;4.87;;;;;;;;;;5045439;28;20182;-76
2022/11/10 03:22:29;;;;;;;14.03;5.30;;;;;;;;;;5050488;28;20181;-75
2022/11/10 03:24:54;;;;;;;19.70;5.20;;;;;;;;;;5044523;28;20265;-72
2022/11/10 03:27:20;;;;;;;15.87;5.03;;;;;;;;;;5041868;28;20205;-75
2022/11/10 03:29:45;;;;;;;16.07;4.83;;;;;;;;;;5048847;28;20659;-74
2022/11/10 03:32:10;;;;;;;18.20;4.83;;;;;;;;;;5048177;28;20307;-75
2022/11/10 03:34:35;;;;;;;17.20;6.50;;;;;;;;;;5046202;28;20178;-74
2022/11/10 03:37:00;;;;;;;19.90;5.90;;;;;;;;;;5055041;28;20622;-74
2022/11/10 03:39:26;;;;;;;14.63;5.20;;;;;;;;;;5057372;28;20221;-74
2022/11/10 03:41:51;;;;;;;22.60;5.10;;;;;;;;;;5042465;28;20178;-74
2022/11/10 03:44:16;;;;;;;17.67;4.90;;;;;;;;;;5052648;28;20185;-74
2022/11/10 03:46:41;;;;;;;17.57;4.90;;;;;;;;;;5061654;28;20196;-74
2022/11/10 03:49:06;;;;;;;12.87;4.60;;;;;;;;;;5051255;28;20169;-75
2022/11/10 03:51:31;;;;;;;17.83;4.90;;;;;;;;;;5041681;28;20267;-74
2022/11/10 03:53:57;;;;;;;17.37;5.50;;;;;;;;;;5061633;28;20280;-74
2022/11/10 03:56:22;;;;;;;18.93;5.03;;;;;;;;;;5043501;28;20710;-74
2022/11/10 03:58:47;;;;;;;14.10;5.30;;;;;;;;;;5047028;28;20205;-74
2022/11/10 04:01:12;;;;;;;23.67;6.03;;;;;;;;;;5043658;28;20510;-74
2022/11/10 04:03:37;;;;;;;12.77;5.00;;;;;;;;;;5050231;28;20534;-74
2022/11/10 04:08:59;;;;;;;15.40;6.40;;;;;;;;;;5038564;28;20694;-74
2022/11/10 04:16:52;;;;;;;26.30;6.77;;;;;;;;;;5041416;28;20200;-72
2022/11/10 04:19:17;;;;;;;20.07;6.60;;;;;;;;;;5066333;28;20178;-72
2022/11/10 04:21:42;;;;;;;17.57;5.03;;;;;;;;;;5059159;28;20490;-75
2022/11/10 04:24:08;;;;;;;14.50;4.80;;;;;;;;;;5043546;28;20186;-74
2022/11/10 04:26:36;;;;;;;20.73;5.43;;;;;;;;;;5042065;28;20205;-74
2022/11/10 04:29:02;;;;;;;17.50;5.90;;;;;;;;;;5047820;28;20254;-74
2022/11/10 04:31:30;;;;;;;17.40;5.73;;;;;;;;;;5044339;28;20214;-74
2022/11/10 04:33:55;;;;;;;19.43;5.57;;;;;;;;;;5059022;28;20192;-74
2022/11/10 04:36:22;;;;;;;23.60;5.87;;;;;;;;;;5040495;28;20708;-74
2022/11/10 04:38:47;;;;;;;17.60;5.40;;;;;;;;;;5042205;28;20188;-74
2022/11/10 04:41:13;;;;;;;20.70;5.60;;;;;;;;;;5039731;28;20174;-74
2022/11/10 04:43:38;;;;;;;14.40;5.47;;;;;;;;;;5039083;28;20273;-75
2022/11/10 04:46:04;;;;;;;18.07;4.60;;;;;;;;;;5042102;28;20667;-75
2022/11/10 04:48:30;;;;;;;16.03;5.93;;;;;;;;;;5046127;28;20212;-75
2022/11/10 04:50:55;;;;;;;22.43;7.50;;;;;;;;;;5034960;28;20233;-74
2022/11/10 04:53:21;;;;;;;21.10;6.00;;;;;;;;;;5040117;28;20201;-74
2022/11/10 04:55:46;;;;;;;18.73;5.53;;;;;;;;;;5044572;28;20226;-74
2022/11/10 04:58:12;;;;;;;16.60;4.87;;;;;;;;;;5038788;28;20596;-75
2022/11/10 05:00:38;;;;;;;20.97;6.10;;;;;;;;;;5042776;28;20277;-74
2022/11/10 05:03:05;;;;;;;21.17;5.67;;;;;;;;;;5037313;28;20182;-75
2022/11/10 05:05:31;;;;;;;21.97;7.60;;;;;;;;;;5046875;28;20208;-75
2022/11/10 05:07:56;;;;;;;19.40;6.23;;;;;;;;;;5038180;28;20220;-75
2022/11/10 05:10:21;;;;;;;18.80;5.63;;;;;;;;;;5049129;28;20193;-74
2022/11/10 05:12:46;;;;;;;21.17;6.47;;;;;;;;;;5046544;28;20662;-74
2022/11/10 05:15:12;;;;;;;14.10;5.83;;;;;;;;;;5042614;28;20186;-74
2022/11/10 05:17:37;;;;;;;22.27;6.80;;;;;;;;;;5047379;28;20249;-74
2022/11/10 05:20:03;;;;;;;20.33;6.00;;;;;;;;;;5038326;28;20172;-75
2022/11/10 05:22:28;;;;;;;15.03;6.73;;;;;;;;;;5045889;28;20212;-75
2022/11/10 05:24:53;;;;;;;24.10;6.50;;;;;;;;;;5039212;28;20178;-74
2022/11/10 05:27:18;;;;;;;15.67;5.87;;;;;;;;;;5039760;28;20376;-74
2022/11/10 05:29:43;;;;;;;26.33;6.70;;;;;;;;;;5043287;28;20186;-74
2022/11/10 05:32:08;;;;;;;17.70;5.50;;;;;;;;;;5046417;28;20280;-74
2022/11/10 05:34:34;;;;;;;21.17;6.40;;;;;;;;;;5037114;28;20632;-74
2022/11/10 05:36:59;;;;;;;17.37;6.30;;;;;;;;;;5046332;28;20216;-74
2022/11/10 05:39:24;;;;;;;23.90;6.60;;;;;;;;;;5047162;28;20264;-74
2022/11/10 05:41:50;;;;;;;20.10;5.97;;;;;;;;;;5045478;28;20182;-74
2022/11/10 05:44:15;;;;;;;19.30;6.97;;;;;;;;;;5055729;28;20174;-74
2022/11/10 05:46:41;;;;;;;17.77;5.93;;;;;;;;;;5055034;28;20289;-74
2022/11/10 05:49:06;;;;;;;22.33;7.13;;;;;;;;;;5046693;28;20170;-74
2022/11/10 05:51:31;;;;;;;17.50;5.43;;;;;;;;;;5054589;28;21361;-75
2022/11/10 05:53:57;;;;;;;18.53;6.03;;;;;;;;;;5054466;28;20190;-75
2022/11/10 05:56:22;;;;;;;26.33;6.67;;;;;;;;;;5056386;28;20225;-74
2022/11/10 05:58:47;;;;;;;21.73;5.73;;;;;;;;;;5049690;28;20603;-74
2022/11/10 06:01:12;;;;;;;22.90;6.30;;;;;;;;;;5055952;28;20184;-75
2022/11/10 06:03:37;;;;;;;19.40;5.63;;;;;;;;;;5047191;28;20200;-74
2022/11/10 06:06:03;;;;;;;17.80;5.20;;;;;;;;;;5051474;28;20221;-75
2022/11/10 06:08:28;;;;;;;14.57;5.00;;;;;;;;;;5044398;28;20704;-75
2022/11/10 06:10:53;;;;;;;15.53;5.40;;;;;;;;;;5046619;28;20284;-75
2022/11/10 06:13:18;;;;;;;18.97;5.33;;;;;;;;;;5056783;28;20157;-72
2022/11/10 06:15:44;;;;;;;19.30;5.77;;;;;;;;;;5054144;28;20319;-75
2022/11/10 06:18:09;;;;;;;21.07;5.80;;;;;;;;;;5049415;28;20166;-75
2022/11/10 06:20:34;;;;;;;25.17;5.70;;;;;;;;;;5047859;28;20173;-74
2022/11/10 06:23:08;;;;;;;19.80;6.03;;;;;;;;;;5044191;28;20170;-75
2022/11/10 06:25:34;;;;;;;17.60;5.47;;;;;;;;;;5047199;28;20188;-74
2022/11/10 06:27:59;;;;;;;16.80;5.70;;;;;;;;;;5043964;28;20174;-74
2022/11/10 06:30:25;;;;;;;23.33;5.50;;;;;;;;;;5051919;28;20262;-74
2022/11/10 06:32:51;;;;;;;18.60;4.93;;;;;;;;;;5056369;28;20166;-74
2022/11/10 06:35:16;;;;;;;10.37;4.90;;;;;;;;;;5065697;28;20177;-74
2022/11/10 06:37:41;;;;;;;16.27;5.30;;;;;;;;;;5045267;28;20178;-75
2022/11/10 06:40:08;;;;;;;23.50;5.27;;;;;;;;;;5068699;28;20643;-75
2022/11/10 06:42:34;;;;;;;19.53;5.57;;;;;;;;;;5044817;28;20181;-75
2022/11/10 06:44:59;;;;;;;14.83;4.73;;;;;;;;;;5048741;28;20546;-74
2022/11/10 06:47:24;;;;;;;14.87;5.60;;;;;;;;;;5054260;28;20204;-74
2022/11/10 06:49:49;;;;;;;15.63;5.60;;;;;;;;;;5051120;28;20208;-74
2022/11/10 06:52:15;;;;;;;13.13;4.77;;;;;;;;;;5045511;28;20173;-74
2022/11/10 06:54:40;;;;;;;17.73;5.73;;;;;;;;;;5063164;28;20171;-74
2022/11/10 06:57:05;;;;;;;23.17;5.90;;;;;;;;;;5038168;28;20576;-74
2022/11/10 06:59:30;;;;;;;15.67;4.77;;;;;;;;;;5046674;28;20166;-74
2022/11/10 07:01:55;;;;;;;20.60;4.80;;;;;;;;;;5042143;28;20179;-74
2022/11/10 07:04:21;;;;;;;13.93;5.27;;;;;;;;;;5041779;28;20594;-74
2022/11/10 07:06:46;;;;;;;21.63;5.10;;;;;;;;;;5043875;28;20193;-74
2022/11/10 07:09:11;;;;;;;15.57;4.47;;;;;;;;;;5049128;28;20174;-74
2022/11/10 07:11:37;;;;;;;20.17;4.37;;;;;;;;;;5044750;28;20202;-74
2022/11/10 07:14:02;;;;;;;17.00;4.30;;;;;;;;;;5047824;28;20204;-75
2022/11/10 07:16:27;;;;;;;22.53;5.67;;;;;;;;;;5050112;28;20229;-75
2022/11/10 07:18:52;;;;;;;14.50;5.07;;;;;;;;;;5041499;28;20190;-74
2022/11/10 07:21:17;;;;;;;17.17;5.47;;;;;;;;;;5046021;28;20178;-74
2022/11/10 07:23:43;;;;;;;18.97;5.53;;;;;;;;;;5048543;28;20209;-74
2022/11/10 07:26:08;;;;;;;20.03;5.67;;;;;;;;;;5041080;28;20569;-74
2022/11/10 07:28:34;;;;;;;16.53;5.53;;;;;;;;;;5041053;28;20188;-74
2022/11/10 07:31:00;;;;;;;20.10;6.20;;;;;;;;;;5048275;28;20221;-74
2022/11/10 07:33:25;;;;;;;14.10;5.47;;;;;;;;;;5044744;28;20177;-74
2022/11/10 07:35:52;;;;;;;17.30;6.30;;;;;;;;;;5051033;28;20288;-74
2022/11/10 07:38:17;;;;;;;17.07;5.00;;;;;;;;;;5048475;28;20256;-75
2022/11/10 07:40:42;;;;;;;15.87;4.90;;;;;;;;;;5048763;28;20622;-74
2022/11/10 07:43:08;;;;;;;18.80;5.13;;;;;;;;;;5052072;28;20189;-74
2022/11/10 07:45:33;;;;;;;17.93;6.67;;;;;;;;;;5038954;28;20758;-74
2022/11/10 07:48:01;;;;;;;19.67;6.27;;;;;;;;;;5042820;28;20182;-74
2022/11/10 07:50:27;;;;;;;17.40;6.07;;;;;;;;;;5040869;28;20659;-74
2022/11/10 07:52:52;;;;;;;16.97;7.47;;;;;;;;;;5058119;28;20243;-74
2022/11/10 07:55:17;;;;;;;15.50;6.47;;;;;;;;;;5043108;28;20162;-74
2022/11/10 07:57:43;;;;;;;15.47;4.97;;;;;;;;;;5039556;28;20304;-74
2022/11/10 08:00:11;;;;;;;15.30;6.27;;;;;;;;;;5041469;28;20173;-74
2022/11/10 08:02:36;;;;;;;19.43;6.60;;;;;;;;;;5042045;28;20662;-74
2022/11/10 08:05:01;;;;;;;20.00;6.27;;;;;;;;;;5042268;28;20261;-74
2022/11/10 08:07:26;;;;;;;15.20;5.60;;;;;;;;;;5041591;28;20198;-74
2022/11/10 08:09:52;;;;;;;15.93;5.97;;;;;;;;;;5046656;28;20540;-75
2022/11/10 08:12:17;;;;;;;14.87;6.07;;;;;;;;;;5040938;28;20268;-74
2022/11/10 08:14:42;;;;;;;19.43;6.20;;;;;;;;;;5050888;28;20252;-74
2022/11/10 08:17:07;;;;;;;13.30;5.57;;;;;;;;;;5044986;28;20255;-74
2022/11/10 08:19:32;;;;;;;14.77;5.80;;;;;;;;;;5038446;28;20177;-74
2022/11/10 08:21:58;;;;;;;16.98;5.40;;;;;;;;;;5043332;28;20182;-74
2022/11/10 08:24:23;;;;;;;13.23;5.32;;;;;;;;;;5049413;28;20192;-74
2022/11/10 08:26:48;;;;;;;12.90;4.60;;;;;;;;;;5039870;28;20542;-75
2022/11/10 08:29:14;;;;;;;15.80;5.90;;;;;;;;;;5045628;28;20178;-74
2022/11/10 08:31:39;;;;;;;18.10;4.72;;;;;;;;;;5043153;28;20201;-74
2022/11/10 08:34:04;;;;;;;17.88;5.07;;;;;;;;;;5046387;28;20166;-72
2022/11/10 08:36:29;;;;;;;12.75;4.45;;;;;;;;;;5047343;28;20596;-74
2022/11/10 08:38:55;;;;;;;14.55;5.88;;;;;;;;;;5048774;28;20216;-74
2022/11/10 08:41:20;;;;;;;7.70;5.03;;;;;;;;;;5044444;28;20194;-75
2022/11/10 08:43:46;;;;;;;13.60;4.00;;;;;;;;;;5048329;28;20174;-74
2022/11/10 08:46:11;;;;;;;13.30;4.82;;;;;;;;;;5049522;28;20193;-74
2022/11/10 08:48:36;;;;;;;13.02;3.53;;;;;;;;;;5042597;28;20201;-72
2022/11/10 08:51:02;;;;;;;14.82;4.97;;;;;;;;;;5040578;28;20268;-74
2022/11/10 08:53:27;;;;;;;9.02;3.65;;;;;;;;;;5037636;28;20644;-74
2022/11/10 08:55:56;;;;;;;18.27;4.75;;;;;;;;;;5047162;28;20193;-74
2022/11/10 08:58:22;;;;;;;16.67;4.15;;;;;;;;;;5046965;28;20189;-74
2022/11/10 09:00:48;;;;;;;12.55;3.83;;;;;;;;;;5044490;28;20179;-74
2022/11/10 09:03:19;;;;;;;9.50;3.65;;;;;;;;;;5062915;28;20169;-74
2022/11/10 09:05:45;;;;;;;21.17;4.57;;;;;;;;;;5041368;28;20210;-74
2022/11/10 09:08:11;;;;;;;10.93;4.00;;;;;;;;;;5050601;28;20178;-74
2022/11/10 09:10:38;;;;;;;9.32;3.08;;;;;;;;;;5040308;28;20197;-74
2022/11/10 09:13:03;;;;;;;13.52;3.90;;;;;;;;;;5046480;28;20219;-74
2022/11/10 09:15:29;;;;;;;8.82;2.95;;;;;;;;;;5043203;28;20699;-72
2022/11/10 09:17:56;;;;;;;12.63;3.83;;;;;;;;;;5064573;28;20166;-75
2022/11/10 09:20:21;;;;;;;10.80;3.90;;;;;;;;;;5042905;28;20754;-72
2022/11/10 09:22:46;;;;;;;12.38;3.22;;;;;;;;;;5046044;28;20211;-72
2022/11/10 09:25:11;;;;;;;10.98;3.50;;;;;;;;;;5043097;28;20178;-72
2022/11/10 09:27:37;;;;;;;9.32;3.47;;;;;;;;;;5047322;28;20492;-72
2022/11/10 09:30:06;;;;;;;11.25;4.63;;;;;;;;;;5050215;28;20181;-72
2022/11/10 09:32:32;;;;;;;11.07;4.28;;;;;;;;;;5044597;28;20215;-72
2022/11/10 09:34:57;;;;;;;11.45;3.45;;;;;;;;;;5047411;28;20170;-73
2022/11/10 09:37:22;;;;;;;12.88;2.95;;;;;;;;;;5044353;28;20691;-72
2022/11/10 09:39:47;;;;;;;11.55;3.33;;;;;;;;;;5046284;28;20459;-73
2022/11/10 09:42:24;;;;;;;12.00;3.20;;;;;;;;;;5049789;28;20186;-72
2022/11/10 09:44:53;;;;;;;9.35;2.80;;;;;;;;;;5043495;28;20178;-72
2022/11/10 09:47:21;;;;;;;9.65;3.83;;;;;;;;;;5049018;28;20580;-72
2022/11/10 09:49:56;;;;;;;10.77;3.00;;;;;;;;;;5042166;28;20169;-72
2022/11/10 09:52:23;;;;;;;9.38;2.88;;;;;;;;;;5048420;28;20676;-72
2022/11/10 09:54:52;;;;;;;19.52;4.07;;;;;;;;;;5048484;28;20197;-72
2022/11/10 09:57:19;;;;;;;7.25;2.53;;;;;;;;;;5039029;28;20339;-72
2022/11/10 09:59:44;;;;;;;11.73;3.38;;;;;;;;;;5046546;28;20178;-72
2022/11/10 10:02:29;;;;;;;7.70;2.72;;;;;;;;;;5046879;28;20558;-73
2022/11/10 10:05:13;;;;;;;14.82;3.00;;;;;;;;;;5040380;28;20170;-73
2022/11/10 10:07:38;;;;;;;9.82;2.97;;;;;;;;;;5049025;28;20264;-73
2022/11/10 10:10:24;;;;;;;11.67;3.97;;;;;;;;;;5050989;28;20702;-73
2022/11/10 10:13:03;;;;;;;8.48;2.17;;;;;;;;;;5059769;28;20408;-73
2022/11/10 10:15:29;;;;;;;13.38;4.10;;;;;;;;;;5048184;28;20379;-73
2022/11/10 10:18:03;;;;;;;8.80;2.42;;;;;;;;;;5045337;28;20248;-73
2022/11/10 10:20:38;;;;;;;14.57;4.05;;;;;;;;;;5063084;28;20185;-73
2022/11/10 10:23:15;;;;;;;8.93;3.60;;;;;;;;;;5045008;28;20176;-73
2022/11/10 10:25:42;;;;;;;10.65;4.28;;;;;;;;;;5051077;28;20197;-73
2022/11/10 10:28:07;;;;;;;6.97;2.78;;;;;;;;;;5046671;28;20224;-73
2022/11/10 10:30:32;;;;;;;6.90;3.40;;;;;;;;;;5044343;28;20662;-73
2022/11/10 10:33:01;;;;;;;10.57;3.40;;;;;;;;;;5042426;28;20407;-73
2022/11/10 10:35:27;;;;;;;8.35;2.90;;;;;;;;;;5050477;28;20165;-73
2022/11/10 10:37:53;;;;;;;12.32;2.97;;;;;;;;;;5051308;28;20185;-73
2022/11/10 10:40:21;;;;;;;13.35;3.83;;;;;;;;;;5047909;28;20166;-73
2022/11/10 10:42:46;;;;;;;9.90;2.88;;;;;;;;;;5051205;28;20177;-73
2022/11/10 10:45:12;;;;;;;11.25;3.85;;;;;;;;;;5052003;28;20272;-73
2022/11/10 10:47:38;;;;;;;13.07;3.33;;;;;;;;;;5050350;28;20209;-73
2022/11/10 10:50:15;;;;;;;11.63;2.72;;;;;;;;;;5048691;28;20177;-73
2022/11/10 10:52:40;;;;;;;7.93;3.42;;;;;;;;;;5049526;28;20178;-73
2022/11/10 10:55:06;;;;;;;8.48;2.92;;;;;;;;;;5042333;28;20181;-73
2022/11/10 10:57:32;;;;;;;11.90;3.33;;;;;;;;;;5046223;28;20212;-73
2022/11/10 11:00:16;;;;;;;13.50;2.42;;;;;;;;;;5046380;28;20159;-71
2022/11/10 11:02:41;;;;;;;11.05;3.17;;;;;;;;;;5046723;28;20652;-73
2022/11/10 11:05:14;;;;;;;11.02;3.00;;;;;;;;;;5044444;28;20236;-71
2022/11/10 11:07:39;;;;;;;11.38;3.92;;;;;;;;;;5052518;28;20536;-73
2022/11/10 11:10:23;;;;;;;6.40;2.35;;;;;;;;;;5050132;28;20343;-74
2022/11/10 11:12:48;;;;;;;8.07;2.67;;;;;;;;;;5038818;28;20166;-73
2022/11/10 11:15:28;;;;;;;7.45;2.65;;;;;;;;;;5047888;28;20645;-73
2022/11/10 11:17:54;;;;;;;11.18;2.42;;;;;;;;;;5053216;28;20166;-73
2022/11/10 11:20:24;;;;;;;9.85;2.25;;;;;;;;;;5051087;28;20169;-73
2022/11/10 11:22:53;;;;;;;7.47;1.98;;;;;;;;;;5052119;28;20172;-73
2022/11/10 11:25:26;;;;;;;6.18;2.53;;;;;;;;;;5047165;28;20265;-73
2022/11/10 11:28:02;;;;;;;10.82;2.05;;;;;;;;;;5066088;28;20236;-72
2022/11/10 11:30:30;;;;;;;11.35;2.30;;;;;;;;;;5053569;28;20208;-73
2022/11/10 11:33:04;;;;;;;13.25;2.80;;;;;;;;;;5038442;28;20225;-74
2022/11/10 11:35:50;;;;;;;7.75;2.90;;;;;;;;;;5038977;28;20545;-73
2022/11/10 11:38:18;;;;;;;12.63;3.75;;;;;;;;;;5044111;28;20272;-73
2022/11/10 11:40:48;;;;;;;8.70;3.08;;;;;;;;;;5045764;28;20186;-73
2022/11/10 11:43:32;;;;;;;6.68;2.63;;;;;;;;;;5051235;28;20193;-74
2022/11/10 11:46:02;;;;;;;8.98;2.95;;;;;;;;;;5051379;28;20569;-73
2022/11/10 11:48:27;;;;;;;9.18;2.42;;;;;;;;;;5038287;28;20586;-73
2022/11/10 11:50:54;;;;;;;9.23;2.63;;;;;;;;;;5045059;28;20239;-73
2022/11/10 11:53:25;;;;;;;8.73;2.58;;;;;;;;;;5049169;28;20395;-73
2022/11/10 11:56:09;;;;;;;9.30;2.25;;;;;;;;;;5050510;28;20201;-73
2022/11/10 11:58:43;;;;;;;10.18;2.38;;;;;;;;;;5040067;28;20178;-74
2022/11/10 12:01:14;;;;;;;13.00;3.28;;;;;;;;;;5039215;28;20185;-73
2022/11/10 12:03:42;;;;;;;8.02;2.47;;;;;;;;;;5049881;28;20199;-73
2022/11/10 12:06:13;;;;;;;11.98;2.42;;;;;;;;;;5040250;28;20200;-73
2022/11/10 12:08:51;;;;;;;9.30;3.05;;;;;;;;;;5042272;28;20173;-73
2022/11/10 12:11:34;;;;;;;15.02;4.82;;;;;;;;;;5048698;28;20261;-73
2022/11/10 12:14:09;;;;;;;8.63;2.20;;;;;;;;;;5032412;28;20178;-73
2022/11/10 12:16:34;;;;;;;6.03;2.55;;;;;;;;;;5047287;28;20283;-73
2022/11/10 12:19:06;;;;;;;9.35;2.33;;;;;;;;;;5045316;28;20265;-73
2022/11/10 12:21:33;;;;;;;8.82;3.13;;;;;;;;;;5039418;28;20185;-74
2022/11/10 12:23:59;;;;;;;10.73;2.50;;;;;;;;;;5038912;28;20264;-73
2022/11/10 12:26:31;;;;;;;12.60;2.33;;;;;;;;;;5050684;28;20635;-73
2022/11/10 12:29:02;;;;;;;4.28;2.25;;;;;;;;;;5065273;28;20816;-73
2022/11/10 12:31:29;;;;;;;10.10;1.98;;;;;;;;;;5037821;28;20192;-73
2022/11/10 12:33:54;;;;;;;7.00;2.38;;;;;;;;;;5046189;28;20244;-73
2022/11/10 12:36:21;;;;;;;9.63;2.63;;;;;;;;;;5041728;28;20707;-73
2022/11/10 12:38:56;;;;;;;6.60;2.13;;;;;;;;;;5063484;28;20406;-73
2022/11/10 12:41:22;;;;;;;8.95;2.65;;;;;;;;;;5050848;28;20181;-73
2022/11/10 12:43:47;;;;;;;13.70;2.38;;;;;;;;;;5052073;28;20512;-73
2022/11/10 12:46:12;;;;;;;6.20;1.70;;;;;;;;;;5050995;28;20680;-73
2022/11/10 12:48:51;;;;;;;5.25;2.50;;;;;;;;;;5048710;28;20454;-72
2022/11/10 12:51:20;;;;;;;9.98;4.30;;;;;;;;;;5045490;28;20272;-72
2022/11/10 12:53:47;;;;;;;4.55;2.03;;;;;;;;;;5041669;28;20204;-74
2022/11/10 12:56:16;;;;;;;6.85;2.00;;;;;;;;;;5042889;28;20580;-72
2022/11/10 12:58:41;;;;;;;7.50;2.03;;;;;;;;;;5042271;28;20600;-73
2022/11/10 13:01:12;;;;;;;6.38;2.17;;;;;;;;;;5041704;28;20216;-72
2022/11/10 13:03:38;;;;;;;9.95;2.15;;;;;;;;;;5049933;28;20185;-73
2022/11/10 13:06:22;;;;;;;5.35;1.95;;;;;;;;;;5038748;28;20679;-73
2022/11/10 13:08:48;;;;;;;8.90;2.30;;;;;;;;;;5035484;28;20178;-74
2022/11/10 13:11:13;;;;;;;7.85;1.80;;;;;;;;;;5039817;28;20197;-73
2022/11/10 13:13:45;;;;;;;6.13;1.80;;;;;;;;;;5048077;28;20177;-73
2022/11/10 13:16:30;;;;;;;5.22;1.83;;;;;;;;;;5042445;28;20975;-72
2022/11/10 13:18:55;;;;;;;5.82;2.10;;;;;;;;;;5038414;28;20176;-73
2022/11/10 13:21:40;;;;;;;10.52;2.70;;;;;;;;;;5049894;28;20181;-73
2022/11/10 13:24:05;;;;;;;8.40;2.38;;;;;;;;;;5048513;28;20189;-73
2022/11/10 13:26:43;;;;;;;6.07;1.90;;;;;;;;;;5034724;28;20687;-73
2022/11/10 13:29:33;;;;;;;3.28;1.55;;;;;;;;;;5046965;28;20257;-73
2022/11/10 13:32:18;;;;;;;11.50;2.38;;;;;;;;;;5025062;28;20263;-73
2022/11/10 13:34:44;;;;;;;8.73;2.40;;;;;;;;;;5052355;28;20181;-73
2022/11/10 13:37:43;;;;;;;7.28;2.40;;;;;;;;;;5045546;28;20213;-73
2022/11/10 13:40:24;;;;;;;7.90;2.30;;;;;;;;;;5046356;28;20209;-73
2022/11/10 13:42:58;;;;;;;6.25;1.83;;;;;;;;;;5044760;28;20208;-73
2022/11/10 13:45:26;;;;;;;5.22;1.75;;;;;;;;;;5050093;28;20674;-73
2022/11/10 13:47:56;;;;;;;6.22;2.10;;;;;;;;;;5047859;28;20178;-73
2022/11/10 13:50:40;;;;;;;6.15;2.17;;;;;;;;;;5047506;28;20681;-73
2022/11/10 13:53:18;;;;;;;8.63;2.38;;;;;;;;;;5038951;28;20196;-73
2022/11/10 13:55:46;;;;;;;5.28;1.52;;;;;;;;;;5035603;28;20189;-72
2022/11/10 13:58:23;;;;;;;10.70;2.20;;;;;;;;;;5041878;28;20719;-72
2022/11/10 14:01:08;;;;;;;7.75;2.00;;;;;;;;;;5039248;28;20184;-72
2022/11/10 14:03:46;;;;;;;5.82;1.60;;;;;;;;;;5050951;28;20276;-72
2022/11/10 14:06:14;;;;;;;5.45;1.60;;;;;;;;;;5044370;28;20189;-72
2022/11/10 14:08:40;;;;;;;3.90;2.03;;;;;;;;;;5046662;28;20265;-72
2022/11/10 14:11:12;;;;;;;10.07;2.10;;;;;;;;;;5060366;28;20197;-72
2022/11/10 14:13:43;;;;;;;8.98;1.80;;;;;;;;;;5065176;28;20181;-72
2022/11/10 14:16:14;;;;;;;7.68;1.98;;;;;;;;;;5040586;28;20213;-72
2022/11/10 14:18:41;;;;;;;8.48;2.05;;;;;;;;;;5039436;28;20178;-73
2022/11/10 14:21:09;;;;;;;5.57;1.83;;;;;;;;;;5044770;28;20189;-72
2022/11/10 14:23:43;;;;;;;7.07;1.73;;;;;;;;;;5045783;28;20630;-72
2022/11/10 14:26:16;;;;;;;6.30;2.17;;;;;;;;;;5053068;28;20215;-73
2022/11/10 14:28:41;;;;;;;5.53;1.65;;;;;;;;;;5048136;28;20178;-73
2022/11/10 14:31:15;;;;;;;6.40;2.00;;;;;;;;;;5058786;28;20198;-73
2022/11/10 14:33:40;;;;;;;9.70;2.58;;;;;;;;;;5048907;28;20174;-73
2022/11/10 14:36:07;;;;;;;7.90;2.28;;;;;;;;;;5051556;28;20234;-73
2022/11/10 14:38:34;;;;;;;5.45;1.77;;;;;;;;;;5053300;28;20177;-73
2022/11/10 14:41:01;;;;;;;10.07;3.20;;;;;;;;;;5053020;28;20178;-73
2022/11/10 14:43:36;;;;;;;5.88;2.25;;;;;;;;;;5053977;28;20181;-73
2022/11/10 14:46:03;;;;;;;13.52;2.10;;;;;;;;;;5053423;28;20721;-73